createdAt,value
2018-11-14T00:02:18.295Z,10.55
2018-11-14T00:04:46.050Z,10.45
2018-11-14T00:07:13.774Z,10.41
2018-11-14T00:09:41.543Z,10.25
2018-11-14T00:12:09.234Z,10.23
2018-11-14T00:14:36.954Z,10.33
2018-11-14T00:17:04.934Z,10.52
2018-11-14T00:19:32.708Z,10.45
2018-11-14T00:22:00.426Z,10.42
2018-11-14T00:24:28.160Z,10.40
2018-11-14T00:26:55.914Z,10.49
2018-11-14T00:29:23.636Z,10.25
2018-11-14T00:31:51.385Z,10.35
2018-11-14T00:34:19.102Z,10.22
2018-11-14T00:36:46.838Z,10.36
2018-11-14T00:39:14.546Z,10.40
2018-11-14T00:41:42.279Z,10.17
2018-11-14T00:44:10.131Z,10.23
2018-11-14T00:46:37.891Z,10.21
2018-11-14T00:49:05.754Z,10.22
2018-11-14T00:51:33.487Z,10.17
2018-11-14T00:54:01.202Z,10.02
2018-11-14T00:56:28.926Z,10.14
2018-11-14T00:58:56.646Z,10.11
2018-11-14T01:01:24.430Z,10.26
2018-11-14T01:03:52.194Z,10.17
2018-11-14T01:06:20.009Z,10.19
2018-11-14T01:08:47.730Z,10.29
2018-11-14T01:11:15.438Z,10.20
2018-11-14T01:13:43.212Z,10.20
2018-11-14T01:16:10.962Z,10.09
2018-11-14T01:18:38.734Z,10.17
2018-11-14T01:21:06.530Z,10.21
2018-11-14T01:23:34.246Z,10.09
2018-11-14T01:26:02.350Z,10.23
2018-11-14T01:28:30.407Z,10.30
2018-11-14T01:30:58.458Z,10.29
2018-11-14T01:33:26.513Z,10.05
2018-11-14T01:35:54.592Z,10.25
2018-11-14T01:38:22.632Z,10.34
2018-11-14T01:40:50.711Z,10.24
2018-11-14T01:43:18.741Z,10.30
2018-11-14T01:45:46.770Z,10.45
2018-11-14T01:48:15.208Z,10.40
2018-11-14T01:50:43.269Z,10.27
2018-11-14T01:53:11.305Z,10.17
2018-11-14T01:55:39.358Z,10.16
2018-11-14T01:58:07.099Z,10.22
2018-11-14T02:00:34.890Z,10.25
2018-11-14T02:03:02.601Z,9.89
2018-11-14T02:05:30.306Z,9.94
2018-11-14T02:07:58.039Z,10.14
2018-11-14T02:10:25.777Z,10.07
2018-11-14T02:12:53.494Z,10.19
2018-11-14T02:15:22.373Z,10.18
2018-11-14T02:17:50.315Z,10.08
2018-11-14T02:20:18.165Z,9.98
2018-11-14T02:22:46.290Z,10.04
2018-11-14T02:25:14.546Z,10.10
2018-11-14T02:27:42.462Z,9.95
2018-11-14T02:30:14.274Z,9.95
2018-11-14T02:32:42.314Z,10.07
2018-11-14T02:35:10.170Z,10.17
2018-11-14T02:37:38.495Z,10.17
2018-11-14T02:40:08.666Z,10.21
2018-11-14T02:42:36.391Z,10.07
2018-11-14T02:45:04.230Z,10.07
2018-11-14T02:47:31.950Z,10.10
2018-11-14T02:49:59.681Z,10.00
2018-11-14T02:52:27.414Z,10.07
2018-11-14T02:54:55.137Z,9.98
2018-11-14T02:57:23.205Z,9.68
2018-11-14T02:59:50.922Z,9.98
2018-11-14T03:02:18.638Z,10.07
2018-11-14T03:04:46.356Z,9.97
2018-11-14T03:07:14.066Z,10.16
2018-11-14T03:09:41.799Z,10.04
2018-11-14T03:12:09.586Z,10.23
2018-11-14T03:14:37.291Z,10.26
2018-11-14T03:17:05.266Z,9.97
2018-11-14T03:19:32.990Z,9.92
2018-11-14T03:22:00.727Z,10.02
2018-11-14T03:24:28.806Z,10.12
2018-11-14T03:26:56.536Z,10.08
2018-11-14T03:29:24.264Z,10.07
2018-11-14T03:31:52.016Z,10.10
2018-11-14T03:34:19.819Z,10.14
2018-11-14T03:36:47.630Z,10.10
2018-11-14T03:39:15.371Z,10.09
2018-11-14T03:41:43.112Z,10.06
2018-11-14T03:44:10.847Z,9.94
2018-11-14T03:46:38.575Z,10.08
2018-11-14T03:49:06.346Z,9.96
2018-11-14T03:51:34.078Z,10.08
2018-11-14T03:54:01.814Z,10.04
2018-11-14T03:56:29.582Z,9.99
2018-11-14T03:58:57.316Z,9.99
2018-11-14T04:01:25.058Z,10.03
2018-11-14T04:03:52.842Z,10.07
2018-11-14T04:06:20.648Z,10.10
2018-11-14T04:08:48.927Z,9.99
2018-11-14T04:11:16.662Z,9.89
2018-11-14T04:13:44.427Z,9.96
2018-11-14T04:16:12.147Z,10.07
2018-11-14T04:18:39.871Z,9.95
2018-11-14T04:21:07.635Z,9.90
2018-11-14T04:23:40.082Z,9.84
2018-11-14T04:26:08.136Z,9.80
2018-11-14T04:28:35.853Z,9.73
2018-11-14T04:31:03.582Z,9.77
2018-11-14T04:33:31.298Z,9.81
2018-11-14T04:35:59.051Z,9.98
2018-11-14T04:38:26.755Z,9.93
2018-11-14T04:40:54.513Z,9.98
2018-11-14T04:43:22.250Z,10.07
2018-11-14T04:45:50.029Z,10.14
2018-11-14T04:48:17.857Z,10.14
2018-11-14T04:50:45.538Z,10.00
2018-11-14T04:53:13.267Z,10.09
2018-11-14T04:55:40.981Z,10.08
2018-11-14T04:58:09.716Z,9.88
2018-11-14T05:00:37.465Z,9.83
2018-11-14T05:03:05.486Z,9.85
2018-11-14T05:05:33.211Z,9.93
2018-11-14T05:08:01.343Z,9.91
2018-11-14T05:10:29.068Z,10.19
2018-11-14T05:12:57.430Z,10.00
2018-11-14T05:15:25.791Z,9.85
2018-11-14T05:17:53.886Z,9.74
2018-11-14T05:20:21.974Z,9.82
2018-11-14T05:22:50.029Z,9.75
2018-11-14T05:25:18.166Z,9.84
2018-11-14T05:27:45.922Z,9.99
2018-11-14T05:30:19.070Z,10.02
2018-11-14T05:32:47.652Z,10.10
2018-11-14T05:35:16.125Z,10.16
2018-11-14T05:37:44.038Z,10.13
2018-11-14T05:40:14.024Z,9.90
2018-11-14T05:42:42.342Z,9.99
2018-11-14T05:45:12.747Z,10.12
2018-11-14T05:47:40.540Z,9.93
2018-11-14T05:50:10.486Z,9.80
2018-11-14T05:52:38.317Z,9.90
2018-11-14T05:55:06.586Z,9.86
2018-11-14T05:57:34.903Z,10.00
2018-11-14T06:00:02.759Z,10.00
2018-11-14T06:02:30.486Z,9.91
2018-11-14T06:04:58.206Z,10.00
2018-11-14T06:07:26.002Z,10.12
2018-11-14T06:09:53.710Z,9.93
2018-11-14T06:12:21.482Z,9.96
2018-11-14T06:14:49.205Z,10.16
2018-11-14T06:17:16.906Z,10.03
2018-11-14T06:19:44.627Z,10.04
2018-11-14T06:22:12.379Z,9.89
2018-11-14T06:24:40.102Z,9.85
2018-11-14T06:27:07.818Z,9.89
2018-11-14T06:29:35.718Z,9.98
2018-11-14T06:32:03.511Z,10.02
2018-11-14T06:34:31.278Z,10.08
2018-11-14T06:36:59.022Z,10.21
2018-11-14T06:39:26.763Z,10.26
2018-11-14T06:41:54.502Z,10.02
2018-11-14T06:44:22.291Z,9.86
2018-11-14T06:46:50.006Z,9.96
2018-11-14T06:49:17.722Z,9.90
2018-11-14T06:51:45.447Z,10.06
2018-11-14T06:54:13.190Z,10.02
2018-11-14T06:56:40.955Z,9.86
2018-11-14T06:59:08.757Z,10.10
2018-11-14T07:01:36.462Z,9.91
2018-11-14T07:04:04.211Z,10.08
2018-11-14T07:06:31.955Z,10.08
2018-11-14T07:08:59.723Z,10.27
2018-11-14T07:11:27.445Z,10.17
2018-11-14T07:21:48.222Z,10.31
2018-11-14T07:24:15.943Z,10.18
2018-11-14T07:26:43.673Z,10.17
2018-11-14T07:29:11.403Z,10.24
2018-11-14T07:31:39.151Z,10.30
2018-11-14T07:34:07.722Z,10.29
2018-11-14T07:36:35.487Z,10.37
2018-11-14T07:39:04.607Z,10.36
2018-11-14T07:41:34.515Z,10.32
2018-11-14T07:44:02.285Z,10.40
2018-11-14T07:46:31.162Z,10.26
2018-11-14T07:48:59.101Z,10.22
2018-11-14T07:51:26.878Z,10.27
2018-11-14T07:53:54.705Z,10.05
2018-11-14T07:56:22.519Z,10.29
2018-11-14T07:58:50.342Z,10.39
2018-11-14T08:01:18.105Z,10.60
2018-11-14T08:03:46.118Z,10.61
2018-11-14T08:06:13.989Z,10.49
2018-11-14T08:08:42.050Z,10.47
2018-11-14T08:11:09.858Z,10.46
2018-11-14T08:13:40.158Z,10.50
2018-11-14T08:16:07.886Z,10.49
2018-11-14T08:18:35.641Z,10.52
2018-11-14T08:21:03.867Z,10.49
2018-11-14T08:23:31.583Z,10.51
2018-11-14T08:25:59.354Z,10.47
2018-11-14T08:28:27.194Z,10.53
2018-11-14T08:30:54.930Z,10.50
2018-11-14T08:33:22.893Z,10.48
2018-11-14T08:35:50.798Z,10.57
2018-11-14T08:38:18.547Z,10.32
2018-11-14T08:40:46.320Z,10.35
2018-11-14T08:43:14.072Z,10.42
2018-11-14T08:45:41.823Z,10.54
2018-11-14T08:48:09.854Z,10.61
2018-11-14T08:50:37.695Z,10.61
2018-11-14T08:53:06.304Z,10.55
2018-11-14T08:55:34.082Z,10.59
2018-11-14T08:58:02.011Z,10.59
2018-11-14T09:00:31.830Z,10.41
2018-11-14T09:02:59.572Z,10.52
2018-11-14T09:05:27.354Z,10.72
2018-11-14T09:07:55.472Z,10.59
2018-11-14T09:10:24.230Z,10.61
2018-11-14T09:12:52.028Z,10.80
2018-11-14T09:15:20.959Z,10.85
2018-11-14T09:17:48.847Z,10.76
2018-11-14T09:20:18.762Z,10.81
2018-11-14T09:22:46.538Z,10.93
2018-11-14T09:25:22.058Z,10.85
2018-11-14T09:27:49.800Z,10.83
2018-11-14T09:30:20.149Z,11.01
2018-11-14T09:32:47.941Z,11.13
2018-11-14T09:35:16.809Z,11.12
2018-11-14T09:37:44.621Z,11.28
2018-11-14T09:40:14.058Z,11.14
2018-11-14T09:42:41.811Z,11.03
2018-11-14T09:45:13.466Z,11.04
2018-11-14T09:47:41.253Z,10.97
2018-11-14T09:50:11.548Z,11.12
2018-11-14T09:52:39.379Z,11.09
2018-11-14T09:55:08.490Z,11.48
2018-11-14T09:57:36.507Z,11.61
2018-11-14T10:00:06.117Z,12.55
2018-11-14T10:02:33.817Z,11.76
2018-11-14T10:05:01.546Z,11.57
2018-11-14T10:07:29.298Z,11.57
2018-11-14T10:09:57.040Z,11.51
2018-11-14T10:12:24.900Z,11.38
2018-11-14T10:14:52.638Z,11.54
2018-11-14T10:17:20.400Z,11.61
2018-11-14T10:19:48.134Z,11.58
2018-11-14T10:22:15.894Z,11.73
2018-11-14T10:24:43.656Z,11.74
2018-11-14T10:27:11.416Z,11.60
2018-11-14T10:29:39.179Z,11.78
2018-11-14T10:32:06.895Z,11.75
2018-11-14T10:34:34.598Z,11.80
2018-11-14T10:37:02.438Z,11.83
2018-11-14T10:39:30.166Z,11.56
2018-11-14T10:41:57.890Z,11.72
2018-11-14T10:44:25.598Z,11.79
2018-11-14T10:46:53.335Z,11.77
2018-11-14T10:49:21.049Z,11.67
2018-11-14T10:51:48.789Z,11.68
2018-11-14T10:54:16.531Z,11.82
2018-11-14T10:56:44.264Z,11.81
2018-11-14T10:59:12.025Z,11.91
2018-11-14T11:01:45.492Z,11.87
2018-11-14T11:04:18.765Z,11.76
2018-11-14T11:06:52.007Z,11.80
2018-11-14T11:09:25.139Z,11.57
2018-11-14T11:11:58.371Z,11.80
2018-11-14T11:14:31.770Z,11.74
2018-11-14T11:17:04.930Z,11.77
2018-11-14T11:19:32.651Z,11.71
2018-11-14T11:22:00.403Z,11.77
2018-11-14T11:24:28.215Z,11.73
2018-11-14T11:26:55.966Z,12.27
2018-11-14T11:29:23.755Z,12.10
2018-11-14T11:31:51.553Z,12.16
2018-11-14T11:34:19.284Z,12.70
2018-11-14T11:36:47.079Z,12.60
2018-11-14T11:39:16.165Z,13.44
2018-11-14T11:41:44.459Z,14.17
2018-11-14T11:44:12.417Z,13.82
2018-11-14T11:46:41.206Z,14.35
2018-11-14T11:49:09.315Z,13.86
2018-11-14T11:51:37.069Z,14.24
2018-11-14T11:54:05.426Z,14.28
2018-11-14T11:56:33.185Z,14.70
2018-11-14T11:59:01.036Z,14.65
2018-11-14T12:01:28.830Z,14.37
2018-11-14T12:03:56.577Z,14.64
2018-11-14T12:06:24.475Z,13.54
2018-11-14T12:08:52.248Z,13.10
2018-11-14T12:11:20.016Z,12.88
2018-11-14T12:13:47.841Z,12.64
2018-11-14T12:16:15.548Z,12.68
2018-11-14T12:18:44.650Z,13.17
2018-11-14T12:21:12.386Z,12.44
2018-11-14T12:23:40.290Z,12.24
2018-11-14T12:26:09.427Z,12.25
2018-11-14T12:28:37.313Z,12.27
2018-11-14T12:31:05.451Z,12.23
2018-11-14T12:33:33.047Z,12.24
2018-11-14T12:36:00.836Z,12.22
2018-11-14T12:38:28.632Z,12.26
2018-11-14T12:40:56.403Z,12.36
2018-11-14T12:43:24.168Z,12.44
2018-11-14T12:45:51.928Z,12.31
2018-11-14T12:48:19.696Z,12.34
2018-11-14T12:50:47.431Z,12.27
2018-11-14T12:53:15.179Z,12.27
2018-11-14T12:55:42.915Z,12.32
2018-11-14T12:58:10.713Z,12.35
2018-11-14T13:00:38.468Z,12.40
2018-11-14T13:03:06.218Z,12.45
2018-11-14T13:05:33.964Z,12.37
2018-11-14T13:08:02.699Z,12.27
2018-11-14T13:10:30.575Z,12.29
2018-11-14T13:12:58.513Z,12.28
2018-11-14T13:15:26.384Z,12.21
2018-11-14T13:17:54.278Z,12.24
2018-11-14T13:20:23.438Z,12.33
2018-11-14T13:22:51.343Z,12.28
2018-11-14T13:25:19.256Z,12.26
2018-11-14T13:27:47.930Z,12.21
2018-11-14T13:30:18.038Z,12.24
2018-11-14T13:32:46.731Z,12.24
2018-11-14T13:35:15.845Z,12.24
2018-11-14T13:37:44.506Z,12.25
2018-11-14T13:40:12.399Z,12.27
2018-11-14T13:42:40.435Z,12.24
2018-11-14T13:45:10.247Z,12.24
2018-11-14T13:47:38.851Z,12.29
2018-11-14T13:50:09.395Z,12.40
2018-11-14T13:52:37.358Z,12.36
2018-11-14T13:55:06.485Z,12.26
2018-11-14T13:57:34.392Z,12.38
2018-11-14T14:00:02.443Z,12.33
2018-11-14T14:02:30.420Z,12.24
2018-11-14T14:04:58.318Z,12.25
2018-11-14T14:07:26.212Z,12.32
2018-11-14T14:09:54.076Z,12.21
2018-11-14T14:12:21.941Z,12.22
2018-11-14T14:14:49.793Z,12.23
2018-11-14T14:17:17.680Z,12.11
2018-11-14T14:19:45.559Z,12.21
2018-11-14T14:22:13.526Z,12.29
2018-11-14T14:24:41.404Z,12.21
2018-11-14T14:27:09.308Z,12.31
2018-11-14T14:29:37.207Z,12.31
2018-11-14T14:32:05.307Z,12.27
2018-11-14T14:34:33.191Z,12.17
2018-11-14T14:37:01.092Z,12.21
2018-11-14T14:39:28.966Z,12.15
2018-11-14T14:41:56.842Z,12.13
2018-11-14T14:44:24.752Z,12.12
2018-11-14T14:46:52.633Z,12.14
2018-11-14T14:49:20.537Z,12.08
2018-11-14T14:51:48.456Z,12.16
2018-11-14T14:54:16.339Z,12.14
2018-11-14T14:56:44.251Z,12.14
2018-11-14T14:59:12.267Z,12.06
2018-11-14T15:01:40.136Z,12.04
2018-11-14T15:04:08.022Z,12.19
2018-11-14T15:06:36.049Z,12.12
2018-11-14T15:09:06.158Z,12.15
2018-11-14T15:11:34.104Z,12.15
2018-11-14T15:14:02.075Z,12.26
2018-11-14T15:16:29.981Z,12.14
2018-11-14T15:18:57.884Z,12.13
2018-11-14T15:21:25.841Z,12.12
2018-11-14T15:23:53.727Z,12.22
2018-11-14T15:26:21.626Z,12.15
2018-11-14T15:28:49.606Z,12.08
2018-11-14T15:31:17.499Z,12.07
2018-11-14T15:33:45.384Z,12.06
2018-11-14T15:36:13.320Z,12.05
2018-11-14T15:38:41.307Z,12.01
2018-11-14T15:41:09.229Z,12.03
2018-11-14T15:43:37.151Z,12.01
2018-11-14T15:46:05.414Z,12.02
2018-11-14T15:48:33.517Z,12.05
2018-11-14T15:51:01.528Z,12.00
2018-11-14T15:53:29.497Z,12.01
2018-11-14T15:55:57.563Z,12.01
2018-11-14T15:58:25.632Z,11.96
2018-11-14T16:00:53.639Z,11.97
2018-11-14T16:03:21.629Z,12.01
2018-11-14T16:05:49.597Z,11.99
2018-11-14T16:08:17.433Z,12.03
2018-11-14T16:10:45.324Z,12.05
2018-11-14T16:13:13.194Z,12.06
2018-11-14T16:15:41.076Z,11.99
2018-11-14T16:18:09.029Z,11.97
2018-11-14T16:20:36.859Z,12.01
2018-11-14T16:23:04.978Z,12.05
2018-11-14T16:25:32.874Z,12.01
2018-11-14T16:28:01.462Z,12.03
2018-11-14T16:30:30.778Z,12.04
2018-11-14T16:33:00.087Z,12.03
2018-11-14T16:35:27.973Z,12.04
2018-11-14T16:37:55.950Z,12.02
2018-11-14T16:40:25.939Z,12.05
2018-11-14T16:42:54.819Z,11.99
2018-11-14T16:45:22.686Z,11.99
2018-11-14T16:47:50.626Z,12.02
2018-11-14T16:50:25.239Z,12.03
2018-11-14T16:52:53.131Z,12.03
2018-11-14T16:55:21.641Z,12.00
2018-11-14T16:57:50.501Z,12.03
2018-11-14T17:00:20.212Z,12.07
2018-11-14T17:02:48.058Z,12.09
2018-11-14T17:05:16.483Z,12.05
2018-11-14T17:07:44.375Z,12.00
2018-11-14T17:10:13.852Z,12.01
2018-11-14T17:12:42.066Z,12.06
2018-11-14T17:15:11.683Z,12.04
2018-11-14T17:17:39.468Z,12.07
2018-11-14T17:20:08.030Z,12.05
2018-11-14T17:22:35.802Z,12.12
2018-11-14T17:25:03.670Z,12.02
2018-11-14T17:27:31.418Z,11.98
2018-11-14T17:29:59.150Z,12.00
2018-11-14T17:32:26.894Z,11.95
2018-11-14T17:34:54.638Z,11.96
2018-11-14T17:37:22.365Z,12.03
2018-11-14T17:39:50.126Z,12.05
2018-11-14T17:42:17.948Z,12.10
2018-11-14T17:44:45.662Z,12.06
2018-11-14T17:47:13.413Z,12.04
2018-11-14T17:49:41.145Z,12.00
2018-11-14T17:52:08.898Z,12.02
2018-11-14T17:54:37.266Z,12.01
2018-11-14T17:57:05.274Z,12.02
2018-11-14T17:59:33.006Z,12.04
2018-11-14T18:02:00.759Z,12.02
2018-11-14T18:04:28.499Z,12.03
2018-11-14T18:06:56.239Z,12.03
2018-11-14T18:09:23.978Z,11.91
2018-11-14T18:11:51.743Z,11.86
2018-11-14T18:14:19.601Z,11.90
2018-11-14T18:16:47.313Z,11.94
2018-11-14T18:19:15.534Z,11.92
2018-11-14T18:21:43.263Z,11.93
2018-11-14T18:24:11.032Z,11.85
2018-11-14T18:26:38.784Z,11.86
2018-11-14T18:29:06.560Z,11.78
2018-11-14T18:31:34.318Z,11.74
2018-11-14T18:34:02.082Z,11.73
2018-11-14T18:36:29.870Z,11.76
2018-11-14T18:38:57.618Z,11.86
2018-11-14T18:41:25.375Z,11.78
2018-11-14T18:43:53.099Z,11.81
2018-11-14T18:46:20.847Z,11.74
2018-11-14T18:48:48.563Z,11.78
2018-11-14T18:51:16.330Z,11.72
2018-11-14T18:53:44.069Z,11.68
2018-11-14T18:56:11.978Z,11.78
2018-11-14T18:58:39.724Z,11.76
2018-11-14T19:01:07.479Z,11.78
2018-11-14T19:03:35.218Z,11.74
2018-11-14T19:06:02.998Z,11.69
2018-11-14T19:08:30.782Z,11.64
2018-11-14T19:10:58.567Z,11.58
2018-11-14T19:13:26.307Z,11.56
2018-11-14T19:15:54.042Z,11.61
2018-11-14T19:18:21.844Z,11.71
2018-11-14T19:20:50.751Z,11.74
2018-11-14T19:23:18.475Z,11.59
2018-11-14T19:25:46.239Z,11.70
2018-11-14T19:28:13.983Z,11.69
2018-11-14T19:30:41.767Z,11.66
2018-11-14T19:33:09.524Z,11.55
2018-11-14T19:35:37.272Z,11.49
2018-11-14T19:38:05.238Z,11.52
2018-11-14T19:40:34.281Z,11.57
2018-11-14T19:43:02.944Z,11.54
2018-11-14T19:45:33.095Z,11.50
2018-11-14T19:48:00.900Z,11.52
2018-11-14T19:50:28.725Z,11.50
2018-11-14T19:52:56.427Z,11.47
2018-11-14T19:55:25.266Z,11.55
2018-11-14T19:57:54.378Z,11.60
2018-11-14T20:00:24.222Z,11.60
2018-11-14T20:02:51.990Z,11.68
2018-11-14T20:05:20.160Z,11.67
2018-11-14T20:07:47.919Z,11.48
2018-11-14T20:10:19.748Z,11.41
2018-11-14T20:12:48.030Z,11.44
2018-11-14T20:15:17.098Z,11.43
2018-11-14T20:17:45.353Z,11.32
2018-11-14T20:20:14.615Z,11.29
2018-11-14T20:22:42.877Z,11.40
2018-11-14T20:25:10.647Z,11.38
2018-11-14T20:27:38.794Z,11.30
2018-11-14T20:30:10.426Z,11.30
2018-11-14T20:32:38.158Z,11.43
2018-11-14T20:35:07.087Z,11.44
2018-11-14T20:37:34.830Z,11.38
2018-11-14T20:40:02.603Z,11.35
2018-11-14T20:42:30.454Z,11.32
2018-11-14T20:44:58.217Z,11.30
2018-11-14T20:47:25.976Z,11.33
2018-11-14T20:49:53.719Z,11.40
2018-11-14T20:52:21.725Z,11.43
2018-11-14T20:54:49.481Z,11.43
2018-11-14T20:57:17.207Z,11.51
2018-11-14T20:59:44.967Z,11.33
2018-11-14T21:02:12.706Z,11.39
2018-11-14T21:04:40.479Z,11.42
2018-11-14T21:07:08.202Z,11.38
2018-11-14T21:09:35.984Z,11.42
2018-11-14T21:12:03.786Z,11.31
2018-11-14T21:14:31.550Z,11.45
2018-11-14T21:16:59.290Z,11.54
2018-11-14T21:19:27.003Z,11.49
2018-11-14T21:21:54.746Z,11.40
2018-11-14T21:24:22.494Z,11.45
2018-11-14T21:26:50.213Z,11.36
2018-11-14T21:29:17.990Z,11.31
2018-11-14T21:31:45.731Z,11.37
2018-11-14T21:34:13.443Z,11.45
2018-11-14T21:36:41.170Z,11.54
2018-11-14T21:39:11.535Z,11.56
2018-11-14T21:41:39.267Z,11.51
2018-11-14T21:44:07.695Z,11.51
2018-11-14T21:46:35.431Z,11.58
2018-11-14T21:49:06.618Z,11.60
2018-11-14T21:51:37.531Z,11.50
2018-11-14T21:54:05.311Z,11.50
2018-11-14T21:56:33.175Z,11.38
2018-11-14T21:59:01.219Z,11.29
2018-11-14T22:01:29.004Z,11.40
2018-11-14T22:03:56.768Z,11.55
2018-11-14T22:06:24.494Z,11.45
2018-11-14T22:08:52.371Z,11.44
2018-11-14T22:11:20.238Z,11.37
2018-11-14T22:13:48.176Z,11.35
2018-11-14T22:16:16.051Z,11.31
2018-11-14T22:18:43.914Z,11.23
2018-11-14T22:21:11.985Z,11.26
2018-11-14T22:23:39.734Z,11.33
2018-11-14T22:26:07.488Z,11.43
2018-11-14T22:28:35.235Z,11.49
2018-11-14T22:31:03.247Z,11.51
2018-11-14T22:33:31.052Z,11.45
2018-11-14T22:35:58.827Z,11.51
2018-11-14T22:38:27.639Z,11.30
2018-11-14T22:40:58.956Z,11.42
2018-11-14T22:43:26.728Z,11.41
2018-11-14T22:45:54.476Z,11.44
2018-11-14T22:48:22.219Z,11.31
2018-11-14T22:50:50.207Z,11.41
2018-11-14T22:53:17.955Z,11.45
2018-11-14T22:55:45.686Z,11.48
2018-11-14T22:58:13.442Z,11.46
2018-11-14T23:00:44.694Z,11.43
2018-11-14T23:03:12.432Z,11.53
2018-11-14T23:05:40.146Z,11.61
2018-11-14T23:08:07.902Z,11.59
2018-11-14T23:10:35.651Z,11.63
2018-11-14T23:13:03.475Z,11.43
2018-11-14T23:15:31.313Z,11.36
2018-11-14T23:17:58.994Z,11.46
2018-11-14T23:20:26.728Z,11.52
2018-11-14T23:22:54.913Z,11.45
2018-11-14T23:25:22.940Z,11.34
2018-11-14T23:27:51.834Z,11.40
2018-11-14T23:30:20.713Z,11.36
2018-11-14T23:32:49.623Z,11.36
2018-11-14T23:35:23.573Z,11.39
2018-11-14T23:37:52.619Z,11.38
2018-11-14T23:40:20.434Z,11.40
2018-11-14T23:42:48.789Z,11.28
2018-11-14T23:45:17.138Z,11.24
2018-11-14T23:47:45.719Z,11.33
2018-11-14T23:50:14.927Z,11.24
2018-11-14T23:52:44.059Z,11.19
2018-11-14T23:55:11.853Z,11.20
2018-11-14T23:57:39.941Z,11.31
